sensor_id;sensor_type;location;lat;lon;timestamp;P1;durP1;ratioP1;P2;durP2;ratioP2
7181;SDS011;3632;42.724;23.298;2023-06-22T00:02:16;10.20;;;9.20;;
7181;SDS011;3632;42.724;23.298;2023-06-22T00:04:43;10.67;;;9.30;;
7181;SDS011;3632;42.724;23.298;2023-06-22T00:07:10;14.73;;;9.70;;
7181;SDS011;3632;42.724;23.298;2023-06-22T00:09:37;11.40;;;9.13;;
7181;SDS011;3632;42.724;23.298;2023-06-22T00:12:04;10.47;;;9.30;;
7181;SDS011;3632;42.724;23.298;2023-06-22T00:14:33;10.27;;;9.20;;
7181;SDS011;3632;42.724;23.298;2023-06-22T00:17:00;9.60;;;8.80;;
7181;SDS011;3632;42.724;23.298;2023-06-22T00:19:26;12.20;;;9.60;;
7181;SDS011;3632;42.724;23.298;2023-06-22T00:21:53;12.20;;;9.83;;
7181;SDS011;3632;42.724;23.298;2023-06-22T00:24:20;10.90;;;9.83;;
7181;SDS011;3632;42.724;23.298;2023-06-22T00:26:47;12.83;;;10.37;;
7181;SDS011;3632;42.724;23.298;2023-06-22T00:29:14;10.73;;;9.73;;
7181;SDS011;3632;42.724;23.298;2023-06-22T00:31:42;12.03;;;9.97;;
7181;SDS011;3632;42.724;23.298;2023-06-22T00:34:09;11.33;;;10.10;;
7181;SDS011;3632;42.724;23.298;2023-06-22T00:36:36;13.73;;;10.43;;
7181;SDS011;3632;42.724;23.298;2023-06-22T00:39:05;12.23;;;10.87;;
7181;SDS011;3632;42.724;23.298;2023-06-22T00:41:32;17.33;;;11.13;;
7181;SDS011;3632;42.724;23.298;2023-06-22T00:43:59;12.10;;;11.00;;
7181;SDS011;3632;42.724;23.298;2023-06-22T00:46:26;11.97;;;10.83;;
7181;SDS011;3632;42.724;23.298;2023-06-22T00:48:54;11.13;;;10.03;;
7181;SDS011;3632;42.724;23.298;2023-06-22T00:51:22;11.57;;;10.37;;
7181;SDS011;3632;42.724;23.298;2023-06-22T00:53:49;11.03;;;9.93;;
7181;SDS011;3632;42.724;23.298;2023-06-22T00:56:16;10.87;;;9.87;;
7181;SDS011;3632;42.724;23.298;2023-06-22T00:58:44;13.17;;;10.10;;
7181;SDS011;3632;42.724;23.298;2023-06-22T01:01:12;12.03;;;10.37;;
7181;SDS011;3632;42.724;23.298;2023-06-22T01:03:39;13.90;;;10.83;;
7181;SDS011;3632;42.724;23.298;2023-06-22T01:06:08;12.00;;;10.77;;
7181;SDS011;3632;42.724;23.298;2023-06-22T01:08:41;11.30;;;10.20;;
7181;SDS011;3632;42.724;23.298;2023-06-22T01:11:14;11.00;;;9.87;;
7181;SDS011;3632;42.724;23.298;2023-06-22T01:13:45;12.03;;;10.93;;
7181;SDS011;3632;42.724;23.298;2023-06-22T01:16:23;12.40;;;11.10;;
7181;SDS011;3632;42.724;23.298;2023-06-22T01:18:54;11.37;;;10.20;;
7181;SDS011;3632;42.724;23.298;2023-06-22T01:21:25;13.17;;;11.13;;
7181;SDS011;3632;42.724;23.298;2023-06-22T01:24:04;11.80;;;10.70;;
7181;SDS011;3632;42.724;23.298;2023-06-22T01:26:42;13.20;;;11.20;;
7181;SDS011;3632;42.724;23.298;2023-06-22T01:29:17;12.50;;;11.17;;
7181;SDS011;3632;42.724;23.298;2023-06-22T01:31:47;12.47;;;10.60;;
7181;SDS011;3632;42.724;23.298;2023-06-22T01:34:16;10.87;;;9.63;;
7181;SDS011;3632;42.724;23.298;2023-06-22T01:36:44;10.73;;;9.60;;
7181;SDS011;3632;42.724;23.298;2023-06-22T01:39:12;11.63;;;9.57;;
7181;SDS011;3632;42.724;23.298;2023-06-22T01:41:40;10.53;;;9.27;;
7181;SDS011;3632;42.724;23.298;2023-06-22T01:44:08;10.07;;;9.10;;
7181;SDS011;3632;42.724;23.298;2023-06-22T01:46:37;11.50;;;8.37;;
7181;SDS011;3632;42.724;23.298;2023-06-22T01:49:05;9.50;;;8.70;;
7181;SDS011;3632;42.724;23.298;2023-06-22T01:51:33;10.17;;;8.80;;
7181;SDS011;3632;42.724;23.298;2023-06-22T01:54:00;9.60;;;8.70;;
7181;SDS011;3632;42.724;23.298;2023-06-22T01:56:28;9.03;;;8.20;;
7181;SDS011;3632;42.724;23.298;2023-06-22T01:58:58;9.77;;;8.87;;
7181;SDS011;3632;42.724;23.298;2023-06-22T02:01:31;8.90;;;8.03;;
7181;SDS011;3632;42.724;23.298;2023-06-22T02:04:10;8.20;;;7.40;;
7181;SDS011;3632;42.724;23.298;2023-06-22T02:06:41;8.53;;;7.73;;
7181;SDS011;3632;42.724;23.298;2023-06-22T02:09:12;8.77;;;7.97;;
7181;SDS011;3632;42.724;23.298;2023-06-22T02:11:43;9.27;;;8.37;;
7181;SDS011;3632;42.724;23.298;2023-06-22T02:14:11;10.03;;;9.00;;
7181;SDS011;3632;42.724;23.298;2023-06-22T02:16:40;11.53;;;9.20;;
7181;SDS011;3632;42.724;23.298;2023-06-22T02:19:08;9.20;;;8.30;;
7181;SDS011;3632;42.724;23.298;2023-06-22T02:21:35;11.83;;;8.60;;
7181;SDS011;3632;42.724;23.298;2023-06-22T02:24:02;9.37;;;8.47;;
7181;SDS011;3632;42.724;23.298;2023-06-22T02:26:29;9.17;;;8.23;;
7181;SDS011;3632;42.724;23.298;2023-06-22T02:28:56;8.97;;;7.87;;
7181;SDS011;3632;42.724;23.298;2023-06-22T02:31:23;8.90;;;8.00;;
7181;SDS011;3632;42.724;23.298;2023-06-22T02:33:55;8.83;;;7.93;;
7181;SDS011;3632;42.724;23.298;2023-06-22T02:36:25;9.57;;;8.37;;
7181;SDS011;3632;42.724;23.298;2023-06-22T02:38:52;11.77;;;8.77;;
7181;SDS011;3632;42.724;23.298;2023-06-22T02:41:21;9.37;;;8.40;;
7181;SDS011;3632;42.724;23.298;2023-06-22T02:43:48;11.33;;;9.17;;
7181;SDS011;3632;42.724;23.298;2023-06-22T02:46:14;9.83;;;8.70;;
7181;SDS011;3632;42.724;23.298;2023-06-22T02:48:41;8.80;;;8.00;;
7181;SDS011;3632;42.724;23.298;2023-06-22T02:51:08;13.40;;;11.50;;
7181;SDS011;3632;42.724;23.298;2023-06-22T02:53:36;12.27;;;10.20;;
7181;SDS011;3632;42.724;23.298;2023-06-22T02:56:03;11.20;;;9.90;;
7181;SDS011;3632;42.724;23.298;2023-06-22T02:58:31;10.13;;;9.13;;
7181;SDS011;3632;42.724;23.298;2023-06-22T03:01:03;9.87;;;8.97;;
7181;SDS011;3632;42.724;23.298;2023-06-22T03:03:30;9.90;;;8.50;;
7181;SDS011;3632;42.724;23.298;2023-06-22T03:05:57;11.37;;;8.50;;
7181;SDS011;3632;42.724;23.298;2023-06-22T03:08:26;9.47;;;8.43;;
7181;SDS011;3632;42.724;23.298;2023-06-22T03:10:55;12.33;;;8.83;;
7181;SDS011;3632;42.724;23.298;2023-06-22T03:13:22;10.13;;;8.93;;
7181;SDS011;3632;42.724;23.298;2023-06-22T03:15:49;10.50;;;9.40;;
7181;SDS011;3632;42.724;23.298;2023-06-22T03:18:16;10.40;;;9.37;;
7181;SDS011;3632;42.724;23.298;2023-06-22T03:20:42;14.30;;;9.97;;
7181;SDS011;3632;42.724;23.298;2023-06-22T03:23:09;12.00;;;10.43;;
7181;SDS011;3632;42.724;23.298;2023-06-22T03:25:36;10.03;;;9.00;;
7181;SDS011;3632;42.724;23.298;2023-06-22T03:28:04;10.17;;;9.17;;
7181;SDS011;3632;42.724;23.298;2023-06-22T03:30:31;13.70;;;9.50;;
7181;SDS011;3632;42.724;23.298;2023-06-22T03:32:58;15.13;;;9.27;;
7181;SDS011;3632;42.724;23.298;2023-06-22T03:35:24;9.77;;;8.77;;
7181;SDS011;3632;42.724;23.298;2023-06-22T03:37:51;12.47;;;8.93;;
7181;SDS011;3632;42.724;23.298;2023-06-22T03:40:18;10.33;;;9.33;;
7181;SDS011;3632;42.724;23.298;2023-06-22T03:42:45;11.23;;;9.17;;
7181;SDS011;3632;42.724;23.298;2023-06-22T03:45:13;11.10;;;10.00;;
7181;SDS011;3632;42.724;23.298;2023-06-22T03:47:40;12.27;;;9.43;;
7181;SDS011;3632;42.724;23.298;2023-06-22T03:50:07;12.83;;;9.50;;
7181;SDS011;3632;42.724;23.298;2023-06-22T03:52:34;11.00;;;9.00;;
7181;SDS011;3632;42.724;23.298;2023-06-22T03:55:01;9.43;;;8.53;;
7181;SDS011;3632;42.724;23.298;2023-06-22T03:57:28;9.40;;;8.60;;
7181;SDS011;3632;42.724;23.298;2023-06-22T03:59:56;9.80;;;8.67;;
7181;SDS011;3632;42.724;23.298;2023-06-22T04:02:25;9.57;;;8.67;;
7181;SDS011;3632;42.724;23.298;2023-06-22T04:04:52;10.40;;;8.87;;
7181;SDS011;3632;42.724;23.298;2023-06-22T04:07:18;10.53;;;8.47;;
7181;SDS011;3632;42.724;23.298;2023-06-22T04:09:45;10.93;;;9.47;;
7181;SDS011;3632;42.724;23.298;2023-06-22T04:12:12;11.60;;;9.23;;
7181;SDS011;3632;42.724;23.298;2023-06-22T04:14:39;12.30;;;9.37;;
7181;SDS011;3632;42.724;23.298;2023-06-22T04:17:05;11.20;;;9.00;;
7181;SDS011;3632;42.724;23.298;2023-06-22T04:19:33;10.47;;;8.77;;
7181;SDS011;3632;42.724;23.298;2023-06-22T04:22:00;10.97;;;9.87;;
7181;SDS011;3632;42.724;23.298;2023-06-22T04:24:27;11.13;;;9.53;;
7181;SDS011;3632;42.724;23.298;2023-06-22T04:26:53;12.77;;;9.10;;
7181;SDS011;3632;42.724;23.298;2023-06-22T04:29:20;12.27;;;9.33;;
7181;SDS011;3632;42.724;23.298;2023-06-22T04:31:55;11.03;;;9.87;;
7181;SDS011;3632;42.724;23.298;2023-06-22T04:34:23;13.77;;;9.43;;
7181;SDS011;3632;42.724;23.298;2023-06-22T04:36:53;9.73;;;8.70;;
7181;SDS011;3632;42.724;23.298;2023-06-22T04:39:20;13.30;;;10.13;;
7181;SDS011;3632;42.724;23.298;2023-06-22T04:41:48;14.23;;;10.23;;
7181;SDS011;3632;42.724;23.298;2023-06-22T04:44:17;11.87;;;9.63;;
7181;SDS011;3632;42.724;23.298;2023-06-22T04:46:49;10.60;;;9.50;;
7181;SDS011;3632;42.724;23.298;2023-06-22T04:49:19;10.37;;;8.97;;
7181;SDS011;3632;42.724;23.298;2023-06-22T04:51:47;12.73;;;9.30;;
7181;SDS011;3632;42.724;23.298;2023-06-22T04:54:18;10.70;;;9.40;;
7181;SDS011;3632;42.724;23.298;2023-06-22T04:56:44;10.53;;;9.20;;
7181;SDS011;3632;42.724;23.298;2023-06-22T04:59:11;11.00;;;9.90;;
7181;SDS011;3632;42.724;23.298;2023-06-22T05:01:38;10.47;;;9.47;;
7181;SDS011;3632;42.724;23.298;2023-06-22T05:04:05;10.63;;;9.53;;
7181;SDS011;3632;42.724;23.298;2023-06-22T05:06:32;11.07;;;9.63;;
7181;SDS011;3632;42.724;23.298;2023-06-22T05:08:59;9.97;;;8.97;;
7181;SDS011;3632;42.724;23.298;2023-06-22T05:11:27;10.90;;;9.63;;
7181;SDS011;3632;42.724;23.298;2023-06-22T05:13:54;11.10;;;9.80;;
7181;SDS011;3632;42.724;23.298;2023-06-22T05:16:22;12.07;;;10.40;;
7181;SDS011;3632;42.724;23.298;2023-06-22T05:18:51;12.10;;;10.77;;
7181;SDS011;3632;42.724;23.298;2023-06-22T05:21:21;13.30;;;9.67;;
7181;SDS011;3632;42.724;23.298;2023-06-22T05:23:49;11.57;;;9.90;;
7181;SDS011;3632;42.724;23.298;2023-06-22T05:26:16;13.07;;;9.80;;
7181;SDS011;3632;42.724;23.298;2023-06-22T05:28:44;12.43;;;10.03;;
7181;SDS011;3632;42.724;23.298;2023-06-22T05:31:12;11.83;;;10.20;;
7181;SDS011;3632;42.724;23.298;2023-06-22T05:33:39;11.33;;;10.20;;
7181;SDS011;3632;42.724;23.298;2023-06-22T05:36:07;11.03;;;9.40;;
7181;SDS011;3632;42.724;23.298;2023-06-22T05:38:33;12.57;;;10.40;;
7181;SDS011;3632;42.724;23.298;2023-06-22T05:41:03;10.90;;;9.80;;
7181;SDS011;3632;42.724;23.298;2023-06-22T05:43:30;12.27;;;10.50;;
7181;SDS011;3632;42.724;23.298;2023-06-22T05:45:59;11.50;;;10.23;;
7181;SDS011;3632;42.724;23.298;2023-06-22T05:48:26;13.60;;;10.20;;
7181;SDS011;3632;42.724;23.298;2023-06-22T05:50:53;11.20;;;10.00;;
7181;SDS011;3632;42.724;23.298;2023-06-22T05:53:20;14.93;;;10.27;;
7181;SDS011;3632;42.724;23.298;2023-06-22T05:55:47;14.07;;;10.33;;
7181;SDS011;3632;42.724;23.298;2023-06-22T05:58:14;16.67;;;10.10;;
7181;SDS011;3632;42.724;23.298;2023-06-22T06:00:41;14.20;;;10.13;;
7181;SDS011;3632;42.724;23.298;2023-06-22T06:03:09;16.37;;;9.77;;
7181;SDS011;3632;42.724;23.298;2023-06-22T06:05:36;15.20;;;10.50;;
7181;SDS011;3632;42.724;23.298;2023-06-22T06:08:05;16.60;;;11.43;;
7181;SDS011;3632;42.724;23.298;2023-06-22T06:10:32;21.07;;;12.20;;
7181;SDS011;3632;42.724;23.298;2023-06-22T06:12:59;20.37;;;12.13;;
7181;SDS011;3632;42.724;23.298;2023-06-22T06:15:29;15.97;;;12.40;;
7181;SDS011;3632;42.724;23.298;2023-06-22T06:17:57;17.17;;;11.90;;
7181;SDS011;3632;42.724;23.298;2023-06-22T06:20:25;17.90;;;12.40;;
7181;SDS011;3632;42.724;23.298;2023-06-22T06:22:54;16.93;;;12.27;;
7181;SDS011;3632;42.724;23.298;2023-06-22T06:25:21;14.57;;;13.03;;
7181;SDS011;3632;42.724;23.298;2023-06-22T06:27:48;16.17;;;12.93;;
7181;SDS011;3632;42.724;23.298;2023-06-22T06:30:17;16.87;;;13.37;;
7181;SDS011;3632;42.724;23.298;2023-06-22T06:32:46;16.93;;;12.77;;
7181;SDS011;3632;42.724;23.298;2023-06-22T06:35:13;15.03;;;11.20;;
7181;SDS011;3632;42.724;23.298;2023-06-22T06:37:43;13.13;;;11.50;;
7181;SDS011;3632;42.724;23.298;2023-06-22T06:40:12;23.33;;;18.57;;
7181;SDS011;3632;42.724;23.298;2023-06-22T06:42:40;28.77;;;25.60;;
7181;SDS011;3632;42.724;23.298;2023-06-22T06:45:10;14.30;;;11.43;;
7181;SDS011;3632;42.724;23.298;2023-06-22T06:47:37;13.07;;;11.27;;
7181;SDS011;3632;42.724;23.298;2023-06-22T06:50:04;16.77;;;10.83;;
7181;SDS011;3632;42.724;23.298;2023-06-22T06:52:32;11.90;;;10.10;;
7181;SDS011;3632;42.724;23.298;2023-06-22T06:55:00;11.47;;;10.27;;
7181;SDS011;3632;42.724;23.298;2023-06-22T06:57:27;11.03;;;9.87;;
7181;SDS011;3632;42.724;23.298;2023-06-22T06:59:55;12.97;;;10.00;;
7181;SDS011;3632;42.724;23.298;2023-06-22T07:02:22;15.13;;;9.67;;
7181;SDS011;3632;42.724;23.298;2023-06-22T07:04:49;13.63;;;10.47;;
7181;SDS011;3632;42.724;23.298;2023-06-22T07:07:16;12.53;;;9.97;;
7181;SDS011;3632;42.724;23.298;2023-06-22T07:09:42;11.63;;;10.50;;
7181;SDS011;3632;42.724;23.298;2023-06-22T07:12:11;12.13;;;10.43;;
7181;SDS011;3632;42.724;23.298;2023-06-22T07:14:38;13.10;;;11.07;;
7181;SDS011;3632;42.724;23.298;2023-06-22T07:17:04;15.37;;;11.57;;
7181;SDS011;3632;42.724;23.298;2023-06-22T07:19:32;13.77;;;10.97;;
7181;SDS011;3632;42.724;23.298;2023-06-22T07:21:59;12.73;;;11.43;;
7181;SDS011;3632;42.724;23.298;2023-06-22T07:24:26;16.10;;;12.30;;
7181;SDS011;3632;42.724;23.298;2023-06-22T07:26:53;18.10;;;11.90;;
7181;SDS011;3632;42.724;23.298;2023-06-22T07:29:21;14.77;;;10.80;;
7181;SDS011;3632;42.724;23.298;2023-06-22T07:31:48;14.43;;;10.47;;
7181;SDS011;3632;42.724;23.298;2023-06-22T07:34:16;12.73;;;10.17;;
7181;SDS011;3632;42.724;23.298;2023-06-22T07:36:43;17.17;;;12.63;;
7181;SDS011;3632;42.724;23.298;2023-06-22T07:39:10;17.20;;;11.47;;
7181;SDS011;3632;42.724;23.298;2023-06-22T07:41:38;13.10;;;10.20;;
7181;SDS011;3632;42.724;23.298;2023-06-22T07:44:06;13.53;;;10.17;;
7181;SDS011;3632;42.724;23.298;2023-06-22T07:46:34;15.43;;;13.13;;
7181;SDS011;3632;42.724;23.298;2023-06-22T07:49:01;15.03;;;11.60;;
7181;SDS011;3632;42.724;23.298;2023-06-22T07:51:28;12.93;;;11.30;;
7181;SDS011;3632;42.724;23.298;2023-06-22T07:53:55;18.80;;;11.03;;
7181;SDS011;3632;42.724;23.298;2023-06-22T07:56:21;12.97;;;10.70;;
7181;SDS011;3632;42.724;23.298;2023-06-22T07:58:48;12.83;;;10.30;;
7181;SDS011;3632;42.724;23.298;2023-06-22T08:01:15;15.13;;;10.17;;
7181;SDS011;3632;42.724;23.298;2023-06-22T08:03:43;14.70;;;11.63;;
7181;SDS011;3632;42.724;23.298;2023-06-22T08:06:10;14.00;;;9.70;;
7181;SDS011;3632;42.724;23.298;2023-06-22T08:08:36;14.93;;;10.33;;
7181;SDS011;3632;42.724;23.298;2023-06-22T08:11:03;16.53;;;9.77;;
7181;SDS011;3632;42.724;23.298;2023-06-22T08:13:30;17.43;;;15.13;;
7181;SDS011;3632;42.724;23.298;2023-06-22T08:15:57;14.47;;;11.67;;
7181;SDS011;3632;42.724;23.298;2023-06-22T08:18:24;12.23;;;10.50;;
7181;SDS011;3632;42.724;23.298;2023-06-22T08:20:52;15.07;;;13.50;;
7181;SDS011;3632;42.724;23.298;2023-06-22T08:23:19;12.97;;;9.90;;
7181;SDS011;3632;42.724;23.298;2023-06-22T08:25:46;10.47;;;9.37;;
7181;SDS011;3632;42.724;23.298;2023-06-22T08:28:15;10.20;;;9.20;;
7181;SDS011;3632;42.724;23.298;2023-06-22T08:30:42;10.33;;;9.23;;
7181;SDS011;3632;42.724;23.298;2023-06-22T08:33:09;14.50;;;9.03;;
7181;SDS011;3632;42.724;23.298;2023-06-22T08:35:36;8.97;;;8.10;;
7181;SDS011;3632;42.724;23.298;2023-06-22T08:38:04;9.17;;;8.27;;
7181;SDS011;3632;42.724;23.298;2023-06-22T08:40:31;8.67;;;7.77;;
7181;SDS011;3632;42.724;23.298;2023-06-22T08:42:57;12.07;;;10.83;;
7181;SDS011;3632;42.724;23.298;2023-06-22T08:45:24;9.83;;;8.87;;
7181;SDS011;3632;42.724;23.298;2023-06-22T08:47:51;11.33;;;10.17;;
7181;SDS011;3632;42.724;23.298;2023-06-22T08:50:17;10.40;;;9.40;;
7181;SDS011;3632;42.724;23.298;2023-06-22T08:52:44;10.97;;;9.87;;
7181;SDS011;3632;42.724;23.298;2023-06-22T08:55:12;12.23;;;9.47;;
7181;SDS011;3632;42.724;23.298;2023-06-22T08:57:39;9.10;;;8.30;;
7181;SDS011;3632;42.724;23.298;2023-06-22T09:00:07;11.03;;;9.17;;
7181;SDS011;3632;42.724;23.298;2023-06-22T09:02:45;12.40;;;9.10;;
7181;SDS011;3632;42.724;23.298;2023-06-22T09:05:13;9.30;;;8.40;;
7181;SDS011;3632;42.724;23.298;2023-06-22T09:07:39;9.40;;;8.50;;
7181;SDS011;3632;42.724;23.298;2023-06-22T09:10:07;22.03;;;15.67;;
7181;SDS011;3632;42.724;23.298;2023-06-22T09:12:35;11.20;;;10.07;;
7181;SDS011;3632;42.724;23.298;2023-06-22T09:15:03;16.87;;;15.17;;
7181;SDS011;3632;42.724;23.298;2023-06-22T09:17:32;11.60;;;10.47;;
7181;SDS011;3632;42.724;23.298;2023-06-22T09:20:00;10.70;;;9.73;;
7181;SDS011;3632;42.724;23.298;2023-06-22T09:22:27;10.83;;;9.80;;
7181;SDS011;3632;42.724;23.298;2023-06-22T09:24:54;9.10;;;8.30;;
7181;SDS011;3632;42.724;23.298;2023-06-22T09:27:22;10.43;;;9.33;;
7181;SDS011;3632;42.724;23.298;2023-06-22T09:29:50;12.77;;;11.47;;
7181;SDS011;3632;42.724;23.298;2023-06-22T09:32:16;11.53;;;10.20;;
7181;SDS011;3632;42.724;23.298;2023-06-22T09:34:43;9.30;;;8.40;;
7181;SDS011;3632;42.724;23.298;2023-06-22T09:37:10;9.40;;;8.40;;
7181;SDS011;3632;42.724;23.298;2023-06-22T09:39:37;10.50;;;9.20;;
7181;SDS011;3632;42.724;23.298;2023-06-22T09:42:04;9.77;;;8.10;;
7181;SDS011;3632;42.724;23.298;2023-06-22T09:44:31;13.73;;;8.87;;
7181;SDS011;3632;42.724;23.298;2023-06-22T09:46:59;11.03;;;9.27;;
7181;SDS011;3632;42.724;23.298;2023-06-22T09:49:26;11.07;;;9.97;;
7181;SDS011;3632;42.724;23.298;2023-06-22T09:51:53;9.43;;;8.50;;
7181;SDS011;3632;42.724;23.298;2023-06-22T09:54:20;7.87;;;7.17;;
7181;SDS011;3632;42.724;23.298;2023-06-22T09:56:47;8.60;;;7.90;;
7181;SDS011;3632;42.724;23.298;2023-06-22T09:59:13;8.30;;;7.50;;
7181;SDS011;3632;42.724;23.298;2023-06-22T10:01:40;8.33;;;7.60;;
7181;SDS011;3632;42.724;23.298;2023-06-22T10:04:08;10.60;;;8.17;;
7181;SDS011;3632;42.724;23.298;2023-06-22T10:06:35;9.30;;;7.63;;
7181;SDS011;3632;42.724;23.298;2023-06-22T10:09:05;12.48;;;11.27;;
7181;SDS011;3632;42.724;23.298;2023-06-22T10:11:32;8.63;;;7.93;;
7181;SDS011;3632;42.724;23.298;2023-06-22T10:14:00;8.13;;;7.40;;
7181;SDS011;3632;42.724;23.298;2023-06-22T10:16:29;8.03;;;7.33;;
7181;SDS011;3632;42.724;23.298;2023-06-22T10:18:57;8.37;;;7.57;;
7181;SDS011;3632;42.724;23.298;2023-06-22T10:21:25;10.37;;;9.20;;
7181;SDS011;3632;42.724;23.298;2023-06-22T10:23:53;9.43;;;8.27;;
7181;SDS011;3632;42.724;23.298;2023-06-22T10:26:20;8.57;;;7.88;;
7181;SDS011;3632;42.724;23.298;2023-06-22T10:28:47;8.70;;;7.90;;
7181;SDS011;3632;42.724;23.298;2023-06-22T10:31:14;8.27;;;7.57;;
7181;SDS011;3632;42.724;23.298;2023-06-22T10:33:41;8.87;;;8.07;;
7181;SDS011;3632;42.724;23.298;2023-06-22T10:36:09;8.13;;;7.43;;
7181;SDS011;3632;42.724;23.298;2023-06-22T10:38:37;8.57;;;7.63;;
7181;SDS011;3632;42.724;23.298;2023-06-22T10:41:04;9.40;;;8.50;;
7181;SDS011;3632;42.724;23.298;2023-06-22T10:43:30;11.83;;;10.70;;
7181;SDS011;3632;42.724;23.298;2023-06-22T10:45:57;7.85;;;7.05;;
7181;SDS011;3632;42.724;23.298;2023-06-22T10:48:24;9.43;;;8.52;;
7181;SDS011;3632;42.724;23.298;2023-06-22T10:50:51;9.43;;;8.33;;
7181;SDS011;3632;42.724;23.298;2023-06-22T10:53:18;8.80;;;8.00;;
7181;SDS011;3632;42.724;23.298;2023-06-22T10:55:46;10.00;;;8.05;;
7181;SDS011;3632;42.724;23.298;2023-06-22T10:58:13;8.63;;;7.93;;
7181;SDS011;3632;42.724;23.298;2023-06-22T11:00:39;8.77;;;7.88;;
7181;SDS011;3632;42.724;23.298;2023-06-22T11:03:06;7.88;;;7.18;;
7181;SDS011;3632;42.724;23.298;2023-06-22T11:05:33;8.63;;;7.88;;
7181;SDS011;3632;42.724;23.298;2023-06-22T11:08:00;8.43;;;7.63;;
7181;SDS011;3632;42.724;23.298;2023-06-22T11:10:26;7.97;;;7.20;;
7181;SDS011;3632;42.724;23.298;2023-06-22T11:12:54;8.40;;;7.63;;
7181;SDS011;3632;42.724;23.298;2023-06-22T11:15:23;8.50;;;7.70;;
7181;SDS011;3632;42.724;23.298;2023-06-22T11:17:49;9.60;;;8.80;;
7181;SDS011;3632;42.724;23.298;2023-06-22T11:20:16;7.38;;;6.65;;
7181;SDS011;3632;42.724;23.298;2023-06-22T11:22:43;7.30;;;6.60;;
7181;SDS011;3632;42.724;23.298;2023-06-22T11:25:10;7.47;;;6.88;;
7181;SDS011;3632;42.724;23.298;2023-06-22T11:27:37;8.02;;;7.22;;
7181;SDS011;3632;42.724;23.298;2023-06-22T11:30:06;7.50;;;6.82;;
7181;SDS011;3632;42.724;23.298;2023-06-22T11:32:34;7.85;;;7.05;;
7181;SDS011;3632;42.724;23.298;2023-06-22T11:35:00;8.35;;;7.55;;
7181;SDS011;3632;42.724;23.298;2023-06-22T11:37:27;14.93;;;13.68;;
7181;SDS011;3632;42.724;23.298;2023-06-22T11:39:54;17.70;;;16.00;;
7181;SDS011;3632;42.724;23.298;2023-06-22T11:42:21;11.57;;;10.57;;
7181;SDS011;3632;42.724;23.298;2023-06-22T11:44:48;9.63;;;8.57;;
7181;SDS011;3632;42.724;23.298;2023-06-22T11:47:16;9.98;;;9.02;;
7181;SDS011;3632;42.724;23.298;2023-06-22T11:49:43;9.20;;;8.30;;
7181;SDS011;3632;42.724;23.298;2023-06-22T11:52:10;10.93;;;7.97;;
7181;SDS011;3632;42.724;23.298;2023-06-22T11:54:37;8.50;;;7.20;;
7181;SDS011;3632;42.724;23.298;2023-06-22T11:57:03;8.30;;;7.50;;
7181;SDS011;3632;42.724;23.298;2023-06-22T11:59:30;8.40;;;7.70;;
7181;SDS011;3632;42.724;23.298;2023-06-22T12:01:57;8.38;;;7.68;;
7181;SDS011;3632;42.724;23.298;2023-06-22T12:04:25;9.20;;;8.27;;
7181;SDS011;3632;42.724;23.298;2023-06-22T12:06:52;8.85;;;8.00;;
7181;SDS011;3632;42.724;23.298;2023-06-22T12:09:19;8.80;;;7.80;;
7181;SDS011;3632;42.724;23.298;2023-06-22T12:11:46;8.80;;;8.00;;
7181;SDS011;3632;42.724;23.298;2023-06-22T12:14:12;10.27;;;8.47;;
7181;SDS011;3632;42.724;23.298;2023-06-22T12:16:39;11.50;;;9.23;;
7181;SDS011;3632;42.724;23.298;2023-06-22T12:19:06;13.07;;;9.77;;
7181;SDS011;3632;42.724;23.298;2023-06-22T12:21:34;11.53;;;10.20;;
7181;SDS011;3632;42.724;23.298;2023-06-22T12:24:01;13.43;;;10.10;;
7181;SDS011;3632;42.724;23.298;2023-06-22T12:26:27;13.07;;;10.20;;
7181;SDS011;3632;42.724;23.298;2023-06-22T12:28:54;13.87;;;10.67;;
7181;SDS011;3632;42.724;23.298;2023-06-22T12:31:21;13.33;;;10.37;;
7181;SDS011;3632;42.724;23.298;2023-06-22T12:33:47;10.40;;;7.70;;
7181;SDS011;3632;42.724;23.298;2023-06-22T12:36:14;10.23;;;6.00;;
7181;SDS011;3632;42.724;23.298;2023-06-22T12:38:43;8.63;;;6.27;;
7181;SDS011;3632;42.724;23.298;2023-06-22T12:41:09;10.10;;;6.23;;
7181;SDS011;3632;42.724;23.298;2023-06-22T12:43:36;8.70;;;6.13;;
7181;SDS011;3632;42.724;23.298;2023-06-22T12:46:03;11.40;;;6.20;;
7181;SDS011;3632;42.724;23.298;2023-06-22T12:48:29;10.10;;;6.03;;
7181;SDS011;3632;42.724;23.298;2023-06-22T12:50:56;12.60;;;6.90;;
7181;SDS011;3632;42.724;23.298;2023-06-22T12:53:23;7.27;;;6.50;;
7181;SDS011;3632;42.724;23.298;2023-06-22T12:55:53;10.60;;;6.07;;
7181;SDS011;3632;42.724;23.298;2023-06-22T12:58:20;6.80;;;5.47;;
7181;SDS011;3632;42.724;23.298;2023-06-22T13:00:47;6.30;;;5.23;;
7181;SDS011;3632;42.724;23.298;2023-06-22T13:03:13;6.63;;;5.90;;
7181;SDS011;3632;42.724;23.298;2023-06-22T13:05:40;10.27;;;5.93;;
7181;SDS011;3632;42.724;23.298;2023-06-22T13:08:07;11.70;;;5.47;;
7181;SDS011;3632;42.724;23.298;2023-06-22T13:10:34;7.93;;;5.60;;
7181;SDS011;3632;42.724;23.298;2023-06-22T13:13:02;9.50;;;5.93;;
7181;SDS011;3632;42.724;23.298;2023-06-22T13:15:29;9.00;;;6.00;;
7181;SDS011;3632;42.724;23.298;2023-06-22T13:17:55;12.33;;;7.70;;
7181;SDS011;3632;42.724;23.298;2023-06-22T13:20:22;11.93;;;6.27;;
7181;SDS011;3632;42.724;23.298;2023-06-22T13:22:49;6.70;;;6.00;;
7181;SDS011;3632;42.724;23.298;2023-06-22T13:25:16;7.07;;;6.37;;
7181;SDS011;3632;42.724;23.298;2023-06-22T13:27:44;10.30;;;6.13;;
7181;SDS011;3632;42.724;23.298;2023-06-22T13:30:12;11.83;;;6.83;;
7181;SDS011;3632;42.724;23.298;2023-06-22T13:32:39;8.20;;;7.10;;
7181;SDS011;3632;42.724;23.298;2023-06-22T13:35:08;10.77;;;6.40;;
7181;SDS011;3632;42.724;23.298;2023-06-22T13:37:35;12.77;;;6.27;;
7181;SDS011;3632;42.724;23.298;2023-06-22T13:40:02;12.53;;;7.60;;
7181;SDS011;3632;42.724;23.298;2023-06-22T13:42:31;11.77;;;7.17;;
7181;SDS011;3632;42.724;23.298;2023-06-22T13:44:58;10.53;;;7.00;;
7181;SDS011;3632;42.724;23.298;2023-06-22T13:47:26;10.47;;;8.00;;
7181;SDS011;3632;42.724;23.298;2023-06-22T13:49:53;10.30;;;7.40;;
7181;SDS011;3632;42.724;23.298;2023-06-22T13:52:20;12.70;;;8.07;;
7181;SDS011;3632;42.724;23.298;2023-06-22T13:54:47;11.83;;;7.47;;
7181;SDS011;3632;42.724;23.298;2023-06-22T13:57:14;9.83;;;7.87;;
7181;SDS011;3632;42.724;23.298;2023-06-22T13:59:40;10.67;;;7.50;;
7181;SDS011;3632;42.724;23.298;2023-06-22T14:02:07;12.60;;;9.27;;
7181;SDS011;3632;42.724;23.298;2023-06-22T14:04:35;9.37;;;7.53;;
7181;SDS011;3632;42.724;23.298;2023-06-22T14:07:02;10.17;;;8.30;;
7181;SDS011;3632;42.724;23.298;2023-06-22T14:09:29;9.47;;;7.83;;
7181;SDS011;3632;42.724;23.298;2023-06-22T14:11:56;12.17;;;9.33;;
7181;SDS011;3632;42.724;23.298;2023-06-22T14:14:22;12.63;;;8.97;;
7181;SDS011;3632;42.724;23.298;2023-06-22T14:16:49;11.00;;;8.13;;
7181;SDS011;3632;42.724;23.298;2023-06-22T14:19:16;8.53;;;7.63;;
7181;SDS011;3632;42.724;23.298;2023-06-22T14:21:45;13.60;;;8.13;;
7181;SDS011;3632;42.724;23.298;2023-06-22T14:24:11;12.50;;;8.67;;
7181;SDS011;3632;42.724;23.298;2023-06-22T14:26:38;10.83;;;8.30;;
7181;SDS011;3632;42.724;23.298;2023-06-22T14:29:05;12.70;;;7.60;;
7181;SDS011;3632;42.724;23.298;2023-06-22T14:31:32;10.37;;;8.37;;
7181;SDS011;3632;42.724;23.298;2023-06-22T14:33:58;12.30;;;7.73;;
7181;SDS011;3632;42.724;23.298;2023-06-22T14:36:26;10.73;;;8.40;;
7181;SDS011;3632;42.724;23.298;2023-06-22T14:38:54;12.67;;;8.93;;
7181;SDS011;3632;42.724;23.298;2023-06-22T14:41:20;14.47;;;8.77;;
7181;SDS011;3632;42.724;23.298;2023-06-22T14:43:47;9.90;;;8.80;;
7181;SDS011;3632;42.724;23.298;2023-06-22T14:46:15;15.30;;;12.50;;
7181;SDS011;3632;42.724;23.298;2023-06-22T14:48:44;15.03;;;11.57;;
7181;SDS011;3632;42.724;23.298;2023-06-22T14:51:11;13.07;;;10.30;;